sensor_id;sensor_type;location;lat;lon;timestamp;P1;durP1;ratioP1;P2;durP2;ratioP2
10497;SDS011;5296;51.060;13.750;2023-07-20T00:01:38;4.97;;;2.50;;
10497;SDS011;5296;51.060;13.750;2023-07-20T00:06:39;4.28;;;2.97;;
10497;SDS011;5296;51.060;13.750;2023-07-20T00:11:47;2.42;;;2.22;;
10497;SDS011;5296;51.060;13.750;2023-07-20T00:16:50;3.13;;;2.72;;
10497;SDS011;5296;51.060;13.750;2023-07-20T00:21:57;3.08;;;2.63;;
10497;SDS011;5296;51.060;13.750;2023-07-20T00:26:59;2.88;;;2.58;;
10497;SDS011;5296;51.060;13.750;2023-07-20T00:32:02;5.32;;;2.65;;
10497;SDS011;5296;51.060;13.750;2023-07-20T00:37:06;2.30;;;2.10;;
10497;SDS011;5296;51.060;13.750;2023-07-20T00:42:08;4.70;;;2.40;;
10497;SDS011;5296;51.060;13.750;2023-07-20T00:47:10;2.45;;;1.95;;
10497;SDS011;5296;51.060;13.750;2023-07-20T00:52:11;2.80;;;2.42;;
10497;SDS011;5296;51.060;13.750;2023-07-20T00:57:17;2.30;;;1.90;;
10497;SDS011;5296;51.060;13.750;2023-07-20T01:02:19;1.77;;;1.67;;
10497;SDS011;5296;51.060;13.750;2023-07-20T01:07:25;2.58;;;1.80;;
10497;SDS011;5296;51.060;13.750;2023-07-20T01:12:41;1.52;;;1.40;;
10497;SDS011;5296;51.060;13.750;2023-07-20T01:17:44;2.50;;;1.60;;
10497;SDS011;5296;51.060;13.750;2023-07-20T01:33:53;3.55;;;1.52;;
10497;SDS011;5296;51.060;13.750;2023-07-20T01:38:56;3.15;;;1.23;;
10497;SDS011;5296;51.060;13.750;2023-07-20T01:43:58;2.08;;;1.70;;
10497;SDS011;5296;51.060;13.750;2023-07-20T01:49:00;1.70;;;1.55;;
10497;SDS011;5296;51.060;13.750;2023-07-20T01:54:05;4.38;;;1.98;;
10497;SDS011;5296;51.060;13.750;2023-07-20T01:59:07;2.58;;;1.58;;
10497;SDS011;5296;51.060;13.750;2023-07-20T02:04:09;1.98;;;1.70;;
10497;SDS011;5296;51.060;13.750;2023-07-20T02:09:10;2.13;;;1.55;;
10497;SDS011;5296;51.060;13.750;2023-07-20T02:14:12;3.08;;;1.90;;
10497;SDS011;5296;51.060;13.750;2023-07-20T02:19:14;3.42;;;2.20;;
10497;SDS011;5296;51.060;13.750;2023-07-20T02:24:15;3.65;;;2.15;;
10497;SDS011;5296;51.060;13.750;2023-07-20T02:29:17;3.65;;;2.17;;
10497;SDS011;5296;51.060;13.750;2023-07-20T02:34:19;5.05;;;2.85;;
10497;SDS011;5296;51.060;13.750;2023-07-20T02:39:20;4.82;;;2.63;;
10497;SDS011;5296;51.060;13.750;2023-07-20T02:44:23;6.30;;;2.72;;
10497;SDS011;5296;51.060;13.750;2023-07-20T02:49:25;6.60;;;2.70;;
10497;SDS011;5296;51.060;13.750;2023-07-20T02:54:28;6.25;;;3.15;;
10497;SDS011;5296;51.060;13.750;2023-07-20T02:59:31;3.70;;;2.70;;
10497;SDS011;5296;51.060;13.750;2023-07-20T03:04:33;6.32;;;3.25;;
10497;SDS011;5296;51.060;13.750;2023-07-20T03:09:34;6.60;;;3.45;;
10497;SDS011;5296;51.060;13.750;2023-07-20T03:14:36;6.68;;;3.70;;
10497;SDS011;5296;51.060;13.750;2023-07-20T03:19:38;5.20;;;3.53;;
10497;SDS011;5296;51.060;13.750;2023-07-20T03:24:40;6.63;;;4.30;;
10497;SDS011;5296;51.060;13.750;2023-07-20T03:29:41;9.57;;;4.05;;
10497;SDS011;5296;51.060;13.750;2023-07-20T03:34:44;7.68;;;3.60;;
10497;SDS011;5296;51.060;13.750;2023-07-20T03:39:48;7.80;;;3.70;;
10497;SDS011;5296;51.060;13.750;2023-07-20T03:44:50;6.20;;;3.65;;
10497;SDS011;5296;51.060;13.750;2023-07-20T03:49:52;6.25;;;3.47;;
10497;SDS011;5296;51.060;13.750;2023-07-20T03:54:54;4.72;;;3.75;;
10497;SDS011;5296;51.060;13.750;2023-07-20T03:59:55;5.28;;;3.58;;
10497;SDS011;5296;51.060;13.750;2023-07-20T04:04:57;4.90;;;3.47;;
10497;SDS011;5296;51.060;13.750;2023-07-20T04:09:59;7.15;;;4.15;;
10497;SDS011;5296;51.060;13.750;2023-07-20T04:15:02;4.40;;;3.80;;
10497;SDS011;5296;51.060;13.750;2023-07-20T04:20:05;6.47;;;3.50;;
10497;SDS011;5296;51.060;13.750;2023-07-20T04:25:07;4.78;;;3.10;;
10497;SDS011;5296;51.060;13.750;2023-07-20T04:30:09;5.28;;;3.35;;
10497;SDS011;5296;51.060;13.750;2023-07-20T04:35:44;8.02;;;3.72;;
10497;SDS011;5296;51.060;13.750;2023-07-20T04:40:48;7.13;;;3.67;;
10497;SDS011;5296;51.060;13.750;2023-07-20T04:45:50;12.02;;;4.68;;
10497;SDS011;5296;51.060;13.750;2023-07-20T04:50:52;18.33;;;6.22;;
10497;SDS011;5296;51.060;13.750;2023-07-20T04:55:54;10.32;;;4.45;;
10497;SDS011;5296;51.060;13.750;2023-07-20T05:00:58;7.65;;;5.13;;
10497;SDS011;5296;51.060;13.750;2023-07-20T05:06:00;8.40;;;5.32;;
10497;SDS011;5296;51.060;13.750;2023-07-20T05:11:01;7.75;;;4.78;;
10497;SDS011;5296;51.060;13.750;2023-07-20T05:16:04;12.13;;;5.07;;
10497;SDS011;5296;51.060;13.750;2023-07-20T05:21:06;6.57;;;4.65;;
10497;SDS011;5296;51.060;13.750;2023-07-20T05:26:09;7.60;;;4.70;;
10497;SDS011;5296;51.060;13.750;2023-07-20T05:31:11;8.07;;;4.90;;
10497;SDS011;5296;51.060;13.750;2023-07-20T05:36:12;7.03;;;4.00;;
10497;SDS011;5296;51.060;13.750;2023-07-20T05:41:14;11.18;;;4.20;;
10497;SDS011;5296;51.060;13.750;2023-07-20T05:46:16;6.03;;;4.47;;
10497;SDS011;5296;51.060;13.750;2023-07-20T05:51:17;7.10;;;4.10;;
10497;SDS011;5296;51.060;13.750;2023-07-20T05:56:19;7.43;;;3.75;;
10497;SDS011;5296;51.060;13.750;2023-07-20T06:01:21;5.57;;;3.30;;
10497;SDS011;5296;51.060;13.750;2023-07-20T06:06:23;7.32;;;3.40;;
10497;SDS011;5296;51.060;13.750;2023-07-20T06:11:25;5.43;;;3.38;;
10497;SDS011;5296;51.060;13.750;2023-07-20T06:16:27;8.32;;;3.85;;
10497;SDS011;5296;51.060;13.750;2023-07-20T06:21:28;4.30;;;3.67;;
10497;SDS011;5296;51.060;13.750;2023-07-20T06:26:30;6.97;;;3.80;;
10497;SDS011;5296;51.060;13.750;2023-07-20T06:31:32;6.22;;;2.90;;
10497;SDS011;5296;51.060;13.750;2023-07-20T06:36:35;3.45;;;2.30;;
10497;SDS011;5296;51.060;13.750;2023-07-20T06:41:37;7.90;;;2.70;;
10497;SDS011;5296;51.060;13.750;2023-07-20T06:46:41;4.78;;;2.75;;
10497;SDS011;5296;51.060;13.750;2023-07-20T06:51:43;5.00;;;2.42;;
10497;SDS011;5296;51.060;13.750;2023-07-20T06:56:45;3.33;;;2.25;;
10497;SDS011;5296;51.060;13.750;2023-07-20T07:02:01;3.75;;;1.73;;
10497;SDS011;5296;51.060;13.750;2023-07-20T07:07:03;2.90;;;2.20;;
10497;SDS011;5296;51.060;13.750;2023-07-20T07:12:06;2.83;;;2.28;;
10497;SDS011;5296;51.060;13.750;2023-07-20T07:17:08;4.45;;;2.40;;
10497;SDS011;5296;51.060;13.750;2023-07-20T07:22:11;3.22;;;2.40;;
10497;SDS011;5296;51.060;13.750;2023-07-20T07:27:14;2.92;;;2.40;;
10497;SDS011;5296;51.060;13.750;2023-07-20T07:32:17;2.75;;;2.40;;
10497;SDS011;5296;51.060;13.750;2023-07-20T07:37:19;2.30;;;2.10;;
10497;SDS011;5296;51.060;13.750;2023-07-20T07:42:21;3.83;;;2.47;;
10497;SDS011;5296;51.060;13.750;2023-07-20T07:47:26;2.47;;;1.80;;
10497;SDS011;5296;51.060;13.750;2023-07-20T07:52:30;3.20;;;2.08;;
10497;SDS011;5296;51.060;13.750;2023-07-20T07:57:32;2.42;;;2.00;;
10497;SDS011;5296;51.060;13.750;2023-07-20T08:02:33;7.10;;;2.60;;
10497;SDS011;5296;51.060;13.750;2023-07-20T08:07:35;4.18;;;3.03;;
10497;SDS011;5296;51.060;13.750;2023-07-20T08:12:38;3.63;;;3.30;;
10497;SDS011;5296;51.060;13.750;2023-07-20T08:17:40;5.88;;;2.85;;
10497;SDS011;5296;51.060;13.750;2023-07-20T08:22:43;5.63;;;3.30;;
10497;SDS011;5296;51.060;13.750;2023-07-20T08:27:48;3.78;;;3.47;;
10497;SDS011;5296;51.060;13.750;2023-07-20T08:32:50;4.35;;;3.58;;
10497;SDS011;5296;51.060;13.750;2023-07-20T08:37:52;7.40;;;3.97;;
10497;SDS011;5296;51.060;13.750;2023-07-20T08:42:54;7.13;;;4.35;;
10497;SDS011;5296;51.060;13.750;2023-07-20T08:47:56;5.05;;;3.85;;
10497;SDS011;5296;51.060;13.750;2023-07-20T08:52:58;4.10;;;3.80;;
10497;SDS011;5296;51.060;13.750;2023-07-20T08:58:00;4.03;;;3.40;;
10497;SDS011;5296;51.060;13.750;2023-07-20T09:03:03;4.18;;;3.75;;
10497;SDS011;5296;51.060;13.750;2023-07-20T09:08:06;3.35;;;3.05;;
10497;SDS011;5296;51.060;13.750;2023-07-20T09:13:08;3.15;;;2.60;;
10497;SDS011;5296;51.060;13.750;2023-07-20T09:18:11;3.00;;;2.75;;
10497;SDS011;5296;51.060;13.750;2023-07-20T09:23:13;3.13;;;2.80;;
10497;SDS011;5296;51.060;13.750;2023-07-20T09:28:14;3.38;;;2.70;;
10497;SDS011;5296;51.060;13.750;2023-07-20T09:33:21;4.90;;;2.83;;
10497;SDS011;5296;51.060;13.750;2023-07-20T09:38:25;4.07;;;3.13;;
10497;SDS011;5296;51.060;13.750;2023-07-20T09:43:30;2.65;;;2.45;;
10497;SDS011;5296;51.060;13.750;2023-07-20T09:48:33;2.78;;;2.58;;
10497;SDS011;5296;51.060;13.750;2023-07-20T09:53:55;2.97;;;2.78;;
10497;SDS011;5296;51.060;13.750;2023-07-20T09:58:57;4.30;;;3.10;;
10497;SDS011;5296;51.060;13.750;2023-07-20T10:03:59;5.05;;;3.25;;
10497;SDS011;5296;51.060;13.750;2023-07-20T10:09:04;5.80;;;5.07;;
10497;SDS011;5296;51.060;13.750;2023-07-20T10:14:08;7.63;;;6.63;;
10497;SDS011;5296;51.060;13.750;2023-07-20T10:19:22;5.15;;;4.32;;
10497;SDS011;5296;51.060;13.750;2023-07-20T10:24:27;6.05;;;5.22;;
10497;SDS011;5296;51.060;13.750;2023-07-20T10:29:29;5.18;;;4.78;;
10497;SDS011;5296;51.060;13.750;2023-07-20T10:34:31;6.03;;;4.90;;
10497;SDS011;5296;51.060;13.750;2023-07-20T10:39:33;5.20;;;3.85;;
10497;SDS011;5296;51.060;13.750;2023-07-20T10:44:39;4.40;;;4.10;;
10497;SDS011;5296;51.060;13.750;2023-07-20T10:50:00;4.55;;;4.18;;
10497;SDS011;5296;51.060;13.750;2023-07-20T10:55:14;3.55;;;3.25;;
10497;SDS011;5296;51.060;13.750;2023-07-20T11:00:18;3.50;;;3.20;;
10497;SDS011;5296;51.060;13.750;2023-07-20T11:05:36;3.75;;;3.22;;
10497;SDS011;5296;51.060;13.750;2023-07-20T11:10:40;3.35;;;3.05;;
10497;SDS011;5296;51.060;13.750;2023-07-20T11:15:45;3.65;;;3.38;;
10497;SDS011;5296;51.060;13.750;2023-07-20T11:20:59;3.92;;;3.50;;
10497;SDS011;5296;51.060;13.750;2023-07-20T11:26:01;3.50;;;3.20;;
10497;SDS011;5296;51.060;13.750;2023-07-20T11:31:04;4.20;;;3.90;;
10497;SDS011;5296;51.060;13.750;2023-07-20T11:36:06;4.30;;;3.83;;
10497;SDS011;5296;51.060;13.750;2023-07-20T11:41:10;4.05;;;3.65;;
10497;SDS011;5296;51.060;13.750;2023-07-20T11:46:12;4.22;;;3.92;;
10497;SDS011;5296;51.060;13.750;2023-07-20T11:51:14;3.83;;;3.53;;
10497;SDS011;5296;51.060;13.750;2023-07-20T11:56:17;4.43;;;4.03;;
10497;SDS011;5296;51.060;13.750;2023-07-20T12:01:19;5.28;;;3.50;;
10497;SDS011;5296;51.060;13.750;2023-07-20T12:06:24;3.13;;;2.92;;
10497;SDS011;5296;51.060;13.750;2023-07-20T12:11:38;3.45;;;3.20;;
10497;SDS011;5296;51.060;13.750;2023-07-20T12:16:40;3.83;;;3.47;;
10497;SDS011;5296;51.060;13.750;2023-07-20T12:21:42;4.30;;;3.75;;
10497;SDS011;5296;51.060;13.750;2023-07-20T12:26:44;3.90;;;3.60;;
10497;SDS011;5296;51.060;13.750;2023-07-20T12:31:46;4.53;;;4.10;;
10497;SDS011;5296;51.060;13.750;2023-07-20T12:36:48;5.75;;;4.43;;
10497;SDS011;5296;51.060;13.750;2023-07-20T12:41:49;5.18;;;4.68;;
10497;SDS011;5296;51.060;13.750;2023-07-20T12:46:51;5.15;;;4.75;;
10497;SDS011;5296;51.060;13.750;2023-07-20T12:51:53;3.83;;;3.33;;
10497;SDS011;5296;51.060;13.750;2023-07-20T12:56:54;2.72;;;2.53;;
10497;SDS011;5296;51.060;13.750;2023-07-20T13:01:59;2.60;;;2.40;;
10497;SDS011;5296;51.060;13.750;2023-07-20T13:07:01;3.00;;;2.80;;
10497;SDS011;5296;51.060;13.750;2023-07-20T13:12:23;3.15;;;2.95;;
10497;SDS011;5296;51.060;13.750;2023-07-20T13:17:24;3.40;;;3.10;;
10497;SDS011;5296;51.060;13.750;2023-07-20T13:22:26;3.10;;;2.80;;
10497;SDS011;5296;51.060;13.750;2023-07-20T13:27:28;2.55;;;2.28;;
10497;SDS011;5296;51.060;13.750;2023-07-20T13:32:33;2.40;;;2.20;;
10497;SDS011;5296;51.060;13.750;2023-07-20T13:37:35;2.10;;;2.00;;
10497;SDS011;5296;51.060;13.750;2023-07-20T13:42:39;1.80;;;1.70;;
10497;SDS011;5296;51.060;13.750;2023-07-20T13:47:42;2.78;;;1.55;;
10497;SDS011;5296;51.060;13.750;2023-07-20T13:52:47;1.60;;;1.50;;
10497;SDS011;5296;51.060;13.750;2023-07-20T13:57:48;1.52;;;1.42;;
10497;SDS011;5296;51.060;13.750;2023-07-20T14:02:50;2.08;;;1.60;;
10497;SDS011;5296;51.060;13.750;2023-07-20T14:07:54;3.33;;;1.48;;
10497;SDS011;5296;51.060;13.750;2023-07-20T14:12:56;1.73;;;1.63;;
10497;SDS011;5296;51.060;13.750;2023-07-20T14:17:58;2.67;;;1.60;;
10497;SDS011;5296;51.060;13.750;2023-07-20T14:23:00;1.50;;;1.40;;
10497;SDS011;5296;51.060;13.750;2023-07-20T14:28:01;1.60;;;1.50;;
10497;SDS011;5296;51.060;13.750;2023-07-20T14:33:03;1.58;;;1.48;;
10497;SDS011;5296;51.060;13.750;2023-07-20T14:38:05;2.50;;;1.60;;
10497;SDS011;5296;51.060;13.750;2023-07-20T14:43:07;1.80;;;1.70;;
10497;SDS011;5296;51.060;13.750;2023-07-20T14:48:08;2.85;;;1.73;;
10497;SDS011;5296;51.060;13.750;2023-07-20T14:53:10;2.25;;;1.85;;
10497;SDS011;5296;51.060;13.750;2023-07-20T14:58:18;2.92;;;1.58;;
10497;SDS011;5296;51.060;13.750;2023-07-20T15:03:21;1.95;;;1.75;;
10497;SDS011;5296;51.060;13.750;2023-07-20T15:08:22;5.85;;;1.60;;
10497;SDS011;5296;51.060;13.750;2023-07-20T15:13:25;3.72;;;2.08;;
10497;SDS011;5296;51.060;13.750;2023-07-20T15:18:27;1.50;;;1.40;;
10497;SDS011;5296;51.060;13.750;2023-07-20T15:23:47;1.65;;;1.38;;
10497;SDS011;5296;51.060;13.750;2023-07-20T15:28:49;1.67;;;1.58;;
10497;SDS011;5296;51.060;13.750;2023-07-20T15:33:50;1.52;;;1.25;;
10497;SDS011;5296;51.060;13.750;2023-07-20T15:38:53;2.35;;;1.30;;
10497;SDS011;5296;51.060;13.750;2023-07-20T15:43:55;1.73;;;1.50;;
10497;SDS011;5296;51.060;13.750;2023-07-20T15:48:57;1.42;;;1.30;;
10497;SDS011;5296;51.060;13.750;2023-07-20T15:53:58;2.58;;;1.48;;
10497;SDS011;5296;51.060;13.750;2023-07-20T15:59:00;4.00;;;1.40;;
10497;SDS011;5296;51.060;13.750;2023-07-20T16:04:02;2.92;;;1.40;;
10497;SDS011;5296;51.060;13.750;2023-07-20T16:09:03;1.98;;;1.25;;
10497;SDS011;5296;51.060;13.750;2023-07-20T16:14:06;1.80;;;1.35;;
10497;SDS011;5296;51.060;13.750;2023-07-20T16:19:08;1.30;;;1.20;;
10497;SDS011;5296;51.060;13.750;2023-07-20T16:24:09;1.48;;;1.20;;
10497;SDS011;5296;51.060;13.750;2023-07-20T16:29:12;0.98;;;0.93;;
10497;SDS011;5296;51.060;13.750;2023-07-20T16:34:17;1.52;;;1.00;;
10497;SDS011;5296;51.060;13.750;2023-07-20T16:39:20;1.67;;;1.17;;
10497;SDS011;5296;51.060;13.750;2023-07-20T16:44:24;1.13;;;1.02;;
10497;SDS011;5296;51.060;13.750;2023-07-20T16:49:26;1.17;;;1.08;;
10497;SDS011;5296;51.060;13.750;2023-07-20T16:54:28;3.10;;;1.30;;
10497;SDS011;5296;51.060;13.750;2023-07-20T16:59:31;1.40;;;1.25;;
10497;SDS011;5296;51.060;13.750;2023-07-20T17:04:33;1.33;;;1.20;;
10497;SDS011;5296;51.060;13.750;2023-07-20T17:09:34;1.20;;;1.10;;
10497;SDS011;5296;51.060;13.750;2023-07-20T17:14:36;1.65;;;1.00;;
10497;SDS011;5296;51.060;13.750;2023-07-20T17:19:38;1.58;;;0.90;;
10497;SDS011;5296;51.060;13.750;2023-07-20T17:24:40;1.55;;;1.05;;
10497;SDS011;5296;51.060;13.750;2023-07-20T17:29:45;1.38;;;1.02;;
10497;SDS011;5296;51.060;13.750;2023-07-20T17:34:47;1.10;;;1.00;;
10497;SDS011;5296;51.060;13.750;2023-07-20T17:39:49;1.33;;;1.00;;
10497;SDS011;5296;51.060;13.750;2023-07-20T17:44:54;1.58;;;1.20;;
10497;SDS011;5296;51.060;13.750;2023-07-20T17:49:56;2.03;;;1.25;;
10497;SDS011;5296;51.060;13.750;2023-07-20T17:54:58;1.20;;;1.08;;
10497;SDS011;5296;51.060;13.750;2023-07-20T18:00:01;1.13;;;1.02;;
10497;SDS011;5296;51.060;13.750;2023-07-20T18:05:06;1.20;;;1.05;;
10497;SDS011;5296;51.060;13.750;2023-07-20T18:10:08;0.90;;;0.90;;
10497;SDS011;5296;51.060;13.750;2023-07-20T18:15:10;1.15;;;1.10;;
10497;SDS011;5296;51.060;13.750;2023-07-20T18:20:12;1.30;;;1.20;;
10497;SDS011;5296;51.060;13.750;2023-07-20T18:25:14;1.50;;;1.40;;
10497;SDS011;5296;51.060;13.750;2023-07-20T18:30:15;1.52;;;1.33;;
10497;SDS011;5296;51.060;13.750;2023-07-20T18:35:20;1.77;;;1.40;;
10497;SDS011;5296;51.060;13.750;2023-07-20T18:40:21;1.23;;;1.17;;
10497;SDS011;5296;51.060;13.750;2023-07-20T18:45:23;1.63;;;1.13;;
10497;SDS011;5296;51.060;13.750;2023-07-20T18:50:25;1.48;;;1.27;;
10497;SDS011;5296;51.060;13.750;2023-07-20T18:55:27;1.65;;;1.40;;
10497;SDS011;5296;51.060;13.750;2023-07-20T19:00:29;1.60;;;1.50;;
10497;SDS011;5296;51.060;13.750;2023-07-20T19:05:32;2.03;;;1.30;;
10497;SDS011;5296;51.060;13.750;2023-07-20T19:10:36;2.17;;;1.20;;
10497;SDS011;5296;51.060;13.750;2023-07-20T19:15:46;1.40;;;1.30;;
10497;SDS011;5296;51.060;13.750;2023-07-20T19:20:49;1.40;;;1.30;;
10497;SDS011;5296;51.060;13.750;2023-07-20T19:25:51;3.00;;;1.30;;
10497;SDS011;5296;51.060;13.750;2023-07-20T19:30:54;2.55;;;1.50;;
10497;SDS011;5296;51.060;13.750;2023-07-20T19:35:56;2.45;;;1.45;;
10497;SDS011;5296;51.060;13.750;2023-07-20T19:40:57;1.80;;;1.70;;
10497;SDS011;5296;51.060;13.750;2023-07-20T19:46:01;2.55;;;1.60;;
10497;SDS011;5296;51.060;13.750;2023-07-20T19:51:04;1.63;;;1.52;;
10497;SDS011;5296;51.060;13.750;2023-07-20T19:56:06;3.05;;;1.70;;
10497;SDS011;5296;51.060;13.750;2023-07-20T20:01:09;4.22;;;1.42;;
10497;SDS011;5296;51.060;13.750;2023-07-20T20:06:13;1.50;;;1.40;;
10497;SDS011;5296;51.060;13.750;2023-07-20T20:11:15;1.50;;;1.40;;
10497;SDS011;5296;51.060;13.750;2023-07-20T20:16:19;2.05;;;1.80;;
10497;SDS011;5296;51.060;13.750;2023-07-20T20:21:21;1.63;;;1.50;;
10497;SDS011;5296;51.060;13.750;2023-07-20T20:26:23;2.33;;;1.60;;
10497;SDS011;5296;51.060;13.750;2023-07-20T20:31:26;1.73;;;1.63;;
10497;SDS011;5296;51.060;13.750;2023-07-20T20:36:27;2.05;;;1.67;;
10497;SDS011;5296;51.060;13.750;2023-07-20T20:41:29;1.73;;;1.63;;
10497;SDS011;5296;51.060;13.750;2023-07-20T20:46:31;1.73;;;1.63;;
10497;SDS011;5296;51.060;13.750;2023-07-20T20:51:33;2.53;;;1.85;;
10497;SDS011;5296;51.060;13.750;2023-07-20T20:56:35;1.88;;;1.77;;
10497;SDS011;5296;51.060;13.750;2023-07-20T21:01:37;2.40;;;1.75;;
10497;SDS011;5296;51.060;13.750;2023-07-20T21:06:39;1.73;;;1.60;;
10497;SDS011;5296;51.060;13.750;2023-07-20T21:11:41;2.65;;;1.80;;
10497;SDS011;5296;51.060;13.750;2023-07-20T21:16:43;3.28;;;2.17;;
10497;SDS011;5296;51.060;13.750;2023-07-20T21:21:45;1.95;;;1.85;;
10497;SDS011;5296;51.060;13.750;2023-07-20T21:26:46;2.42;;;1.80;;
10497;SDS011;5296;51.060;13.750;2023-07-20T21:31:48;2.40;;;2.20;;
10497;SDS011;5296;51.060;13.750;2023-07-20T21:36:50;2.28;;;1.70;;
10497;SDS011;5296;51.060;13.750;2023-07-20T21:41:51;6.07;;;2.03;;
10497;SDS011;5296;51.060;13.750;2023-07-20T21:46:53;3.33;;;2.80;;
10497;SDS011;5296;51.060;13.750;2023-07-20T21:51:55;2.20;;;2.00;;
10497;SDS011;5296;51.060;13.750;2023-07-20T21:56:56;2.10;;;1.90;;
10497;SDS011;5296;51.060;13.750;2023-07-20T22:01:58;3.10;;;1.88;;
10497;SDS011;5296;51.060;13.750;2023-07-20T22:07:01;3.50;;;2.05;;
10497;SDS011;5296;51.060;13.750;2023-07-20T22:12:04;2.38;;;2.00;;
10497;SDS011;5296;51.060;13.750;2023-07-20T22:17:05;2.35;;;2.03;;
10497;SDS011;5296;51.060;13.750;2023-07-20T22:22:08;2.00;;;1.90;;
10497;SDS011;5296;51.060;13.750;2023-07-20T22:27:09;2.47;;;2.28;;
10497;SDS011;5296;51.060;13.750;2023-07-20T22:32:11;2.10;;;2.00;;
10497;SDS011;5296;51.060;13.750;2023-07-20T22:37:12;2.28;;;2.17;;
10497;SDS011;5296;51.060;13.750;2023-07-20T22:42:14;2.30;;;2.10;;
10497;SDS011;5296;51.060;13.750;2023-07-20T22:47:18;2.38;;;2.17;;
10497;SDS011;5296;51.060;13.750;2023-07-20T22:52:19;2.25;;;2.10;;
10497;SDS011;5296;51.060;13.750;2023-07-20T22:57:21;2.35;;;2.15;;
10497;SDS011;5296;51.060;13.750;2023-07-20T23:02:24;2.20;;;2.10;;
10497;SDS011;5296;51.060;13.750;2023-07-20T23:07:26;2.38;;;2.17;;
10497;SDS011;5296;51.060;13.750;2023-07-20T23:12:29;2.50;;;2.30;;
10497;SDS011;5296;51.060;13.750;2023-07-20T23:17:30;2.53;;;2.22;;
10497;SDS011;5296;51.060;13.750;2023-07-20T23:22:32;3.33;;;2.03;;
10497;SDS011;5296;51.060;13.750;2023-07-20T23:27:34;2.60;;;2.40;;
10497;SDS011;5296;51.060;13.750;2023-07-20T23:32:36;2.92;;;2.42;;
10497;SDS011;5296;51.060;13.750;2023-07-20T23:37:38;2.55;;;2.30;;
10497;SDS011;5296;51.060;13.750;2023-07-20T23:42:40;2.22;;;1.98;;
10497;SDS011;5296;51.060;13.750;2023-07-20T23:47:43;2.25;;;2.15;;
10497;SDS011;5296;51.060;13.750;2023-07-20T23:52:45;2.53;;;2.22;;
10497;SDS011;5296;51.060;13.750;2023-07-20T23:57:47;2.65;;;2.10;;
